sensor_id;sensor_type;location;lat;lon;timestamp;temperature;humidity
15111;DHT22;7656;51.954;7.998;2023-03-01T00:01:55;0.30;99.90
15111;DHT22;7656;51.954;7.998;2023-03-01T00:06:17;0.30;99.90
15111;DHT22;7656;51.954;7.998;2023-03-01T00:10:39;0.30;99.90
15111;DHT22;7656;51.954;7.998;2023-03-01T00:15:00;0.20;99.90
15111;DHT22;7656;51.954;7.998;2023-03-01T00:19:21;0.20;99.90
15111;DHT22;7656;51.954;7.998;2023-03-01T00:23:44;0.20;99.90
15111;DHT22;7656;51.954;7.998;2023-03-01T00:28:06;0.00;99.90
15111;DHT22;7656;51.954;7.998;2023-03-01T00:32:27;-0.10;99.90
15111;DHT22;7656;51.954;7.998;2023-03-01T00:36:48;0.00;99.90
15111;DHT22;7656;51.954;7.998;2023-03-01T00:41:15;-0.40;99.90
15111;DHT22;7656;51.954;7.998;2023-03-01T00:45:37;-0.30;99.90
15111;DHT22;7656;51.954;7.998;2023-03-01T00:49:58;-0.10;99.90
15111;DHT22;7656;51.954;7.998;2023-03-01T00:54:19;0.00;99.90
15111;DHT22;7656;51.954;7.998;2023-03-01T00:58:42;-0.10;99.90
15111;DHT22;7656;51.954;7.998;2023-03-01T01:03:03;-0.10;99.90
15111;DHT22;7656;51.954;7.998;2023-03-01T01:07:25;0.00;99.90
15111;DHT22;7656;51.954;7.998;2023-03-01T01:11:48;0.10;99.90
15111;DHT22;7656;51.954;7.998;2023-03-01T01:16:10;0.00;99.90
15111;DHT22;7656;51.954;7.998;2023-03-01T01:20:32;-0.20;99.90
15111;DHT22;7656;51.954;7.998;2023-03-01T01:24:53;-0.20;99.90
15111;DHT22;7656;51.954;7.998;2023-03-01T01:29:14;-0.20;99.90
15111;DHT22;7656;51.954;7.998;2023-03-01T01:33:36;-0.20;99.90
15111;DHT22;7656;51.954;7.998;2023-03-01T01:37:58;-0.20;99.90
15111;DHT22;7656;51.954;7.998;2023-03-01T01:42:19;-0.20;99.90
15111;DHT22;7656;51.954;7.998;2023-03-01T01:47:20;-0.30;99.90
15111;DHT22;7656;51.954;7.998;2023-03-01T01:51:44;-0.30;99.90
15111;DHT22;7656;51.954;7.998;2023-03-01T01:56:11;-0.30;99.90
15111;DHT22;7656;51.954;7.998;2023-03-01T02:00:33;-0.50;99.90
15111;DHT22;7656;51.954;7.998;2023-03-01T02:05:02;-0.50;99.90
15111;DHT22;7656;51.954;7.998;2023-03-01T02:09:26;-0.40;99.90
15111;DHT22;7656;51.954;7.998;2023-03-01T02:13:49;-0.50;99.90
15111;DHT22;7656;51.954;7.998;2023-03-01T02:18:12;-0.40;99.90
15111;DHT22;7656;51.954;7.998;2023-03-01T02:22:37;-0.50;99.90
15111;DHT22;7656;51.954;7.998;2023-03-01T02:27:00;-0.70;99.90
15111;DHT22;7656;51.954;7.998;2023-03-01T02:31:22;-0.70;99.90
15111;DHT22;7656;51.954;7.998;2023-03-01T02:36:08;-0.60;99.90
15111;DHT22;7656;51.954;7.998;2023-03-01T02:40:34;-0.70;99.90
15111;DHT22;7656;51.954;7.998;2023-03-01T02:44:56;-0.70;99.90
15111;DHT22;7656;51.954;7.998;2023-03-01T02:49:26;-0.70;99.90
15111;DHT22;7656;51.954;7.998;2023-03-01T02:58:19;-0.60;99.90
15111;DHT22;7656;51.954;7.998;2023-03-01T03:02:41;-0.70;99.90
15111;DHT22;7656;51.954;7.998;2023-03-01T03:07:13;-1.00;99.90
15111;DHT22;7656;51.954;7.998;2023-03-01T03:11:34;-1.00;99.90
15111;DHT22;7656;51.954;7.998;2023-03-01T03:15:57;-0.90;99.90
15111;DHT22;7656;51.954;7.998;2023-03-01T03:20:20;-1.00;99.90
15111;DHT22;7656;51.954;7.998;2023-03-01T03:24:43;-1.10;99.90
15111;DHT22;7656;51.954;7.998;2023-03-01T03:29:04;-1.20;99.90
15111;DHT22;7656;51.954;7.998;2023-03-01T03:33:25;-1.20;99.90
15111;DHT22;7656;51.954;7.998;2023-03-01T03:37:46;-1.10;99.90
15111;DHT22;7656;51.954;7.998;2023-03-01T03:42:26;-1.00;99.90
15111;DHT22;7656;51.954;7.998;2023-03-01T03:46:47;-1.00;99.90
15111;DHT22;7656;51.954;7.998;2023-03-01T03:51:16;-1.10;99.90
15111;DHT22;7656;51.954;7.998;2023-03-01T03:55:38;-1.10;99.90
15111;DHT22;7656;51.954;7.998;2023-03-01T04:00:03;-1.10;99.90
15111;DHT22;7656;51.954;7.998;2023-03-01T04:04:33;-1.10;99.90
15111;DHT22;7656;51.954;7.998;2023-03-01T04:08:54;-1.10;99.90
15111;DHT22;7656;51.954;7.998;2023-03-01T04:13:20;-1.10;99.90
15111;DHT22;7656;51.954;7.998;2023-03-01T04:17:43;-1.10;99.90
15111;DHT22;7656;51.954;7.998;2023-03-01T04:22:06;-1.10;99.90
15111;DHT22;7656;51.954;7.998;2023-03-01T04:26:30;-0.90;99.90
15111;DHT22;7656;51.954;7.998;2023-03-01T04:30:52;-1.00;99.90
15111;DHT22;7656;51.954;7.998;2023-03-01T04:35:14;-1.00;99.90
15111;DHT22;7656;51.954;7.998;2023-03-01T04:39:35;-0.90;99.90
15111;DHT22;7656;51.954;7.998;2023-03-01T04:44:06;-1.00;99.90
15111;DHT22;7656;51.954;7.998;2023-03-01T04:48:30;-1.00;99.90
15111;DHT22;7656;51.954;7.998;2023-03-01T04:52:52;-1.20;99.90
15111;DHT22;7656;51.954;7.998;2023-03-01T04:57:13;-1.60;99.90
15111;DHT22;7656;51.954;7.998;2023-03-01T05:01:35;-1.60;99.90
15111;DHT22;7656;51.954;7.998;2023-03-01T05:05:58;-1.40;99.90
15111;DHT22;7656;51.954;7.998;2023-03-01T05:10:21;-1.30;99.90
15111;DHT22;7656;51.954;7.998;2023-03-01T05:14:42;-1.20;99.90
15111;DHT22;7656;51.954;7.998;2023-03-01T05:19:03;-1.60;99.90
15111;DHT22;7656;51.954;7.998;2023-03-01T05:23:36;-1.40;99.90
15111;DHT22;7656;51.954;7.998;2023-03-01T05:27:58;-1.40;99.90
15111;DHT22;7656;51.954;7.998;2023-03-01T05:32:20;-1.40;99.90
15111;DHT22;7656;51.954;7.998;2023-03-01T05:36:41;-1.40;99.90
15111;DHT22;7656;51.954;7.998;2023-03-01T05:41:02;-1.50;99.90
15111;DHT22;7656;51.954;7.998;2023-03-01T05:45:25;-1.50;99.90
15111;DHT22;7656;51.954;7.998;2023-03-01T05:49:47;-1.40;99.90
15111;DHT22;7656;51.954;7.998;2023-03-01T05:54:10;-1.60;99.90
15111;DHT22;7656;51.954;7.998;2023-03-01T05:58:31;-1.70;99.90
15111;DHT22;7656;51.954;7.998;2023-03-01T06:02:54;-1.70;99.90
15111;DHT22;7656;51.954;7.998;2023-03-01T06:07:15;-1.60;99.90
15111;DHT22;7656;51.954;7.998;2023-03-01T06:11:37;-1.60;99.90
15111;DHT22;7656;51.954;7.998;2023-03-01T06:15:58;-1.60;99.90
15111;DHT22;7656;51.954;7.998;2023-03-01T06:20:21;-1.50;99.90
15111;DHT22;7656;51.954;7.998;2023-03-01T06:24:44;-1.40;99.90
15111;DHT22;7656;51.954;7.998;2023-03-01T06:29:05;-1.30;99.90
15111;DHT22;7656;51.954;7.998;2023-03-01T06:33:26;-1.10;99.90
15111;DHT22;7656;51.954;7.998;2023-03-01T06:37:47;-1.40;99.90
15111;DHT22;7656;51.954;7.998;2023-03-01T06:42:09;-1.60;99.90
15111;DHT22;7656;51.954;7.998;2023-03-01T06:46:33;-1.20;99.90
15111;DHT22;7656;51.954;7.998;2023-03-01T06:50:54;-0.80;99.90
15111;DHT22;7656;51.954;7.998;2023-03-01T06:55:19;-0.30;99.90
15111;DHT22;7656;51.954;7.998;2023-03-01T06:59:40;0.10;99.90
15111;DHT22;7656;51.954;7.998;2023-03-01T07:04:01;0.70;99.90
15111;DHT22;7656;51.954;7.998;2023-03-01T07:08:22;1.40;99.90
15111;DHT22;7656;51.954;7.998;2023-03-01T07:12:43;2.00;99.90
15111;DHT22;7656;51.954;7.998;2023-03-01T07:17:04;2.50;99.90
15111;DHT22;7656;51.954;7.998;2023-03-01T07:21:25;2.70;99.90
15111;DHT22;7656;51.954;7.998;2023-03-01T07:25:52;3.30;99.90
15111;DHT22;7656;51.954;7.998;2023-03-01T07:30:14;3.70;99.90
15111;DHT22;7656;51.954;7.998;2023-03-01T07:34:35;5.10;99.90
15111;DHT22;7656;51.954;7.998;2023-03-01T07:38:56;7.30;99.90
15111;DHT22;7656;51.954;7.998;2023-03-01T07:43:18;10.50;99.90
15111;DHT22;7656;51.954;7.998;2023-03-01T07:47:40;14.00;99.90
15111;DHT22;7656;51.954;7.998;2023-03-01T07:52:01;16.90;97.50
15111;DHT22;7656;51.954;7.998;2023-03-01T07:56:23;18.90;87.90
15111;DHT22;7656;51.954;7.998;2023-03-01T08:00:44;20.30;75.40
15111;DHT22;7656;51.954;7.998;2023-03-01T08:05:05;21.70;67.00
15111;DHT22;7656;51.954;7.998;2023-03-01T08:09:26;22.60;60.80
15111;DHT22;7656;51.954;7.998;2023-03-01T08:18:09;24.40;54.20
15111;DHT22;7656;51.954;7.998;2023-03-01T08:22:30;24.80;52.80
15111;DHT22;7656;51.954;7.998;2023-03-01T08:26:52;25.50;49.70
15111;DHT22;7656;51.954;7.998;2023-03-01T08:35:45;24.70;49.00
15111;DHT22;7656;51.954;7.998;2023-03-01T08:40:07;25.00;47.70
15111;DHT22;7656;51.954;7.998;2023-03-01T08:44:30;25.30;45.80
15111;DHT22;7656;51.954;7.998;2023-03-01T08:53:13;26.60;43.80
15111;DHT22;7656;51.954;7.998;2023-03-01T08:57:34;24.10;45.40
15111;DHT22;7656;51.954;7.998;2023-03-01T09:01:55;24.30;46.20
15111;DHT22;7656;51.954;7.998;2023-03-01T09:06:17;24.40;46.20
15111;DHT22;7656;51.954;7.998;2023-03-01T09:10:38;26.40;44.80
15111;DHT22;7656;51.954;7.998;2023-03-01T09:15:00;23.50;43.70
15111;DHT22;7656;51.954;7.998;2023-03-01T09:19:21;21.90;48.20
15111;DHT22;7656;51.954;7.998;2023-03-01T09:23:44;24.10;46.00
15111;DHT22;7656;51.954;7.998;2023-03-01T09:28:06;24.50;45.10
15111;DHT22;7656;51.954;7.998;2023-03-01T09:32:30;24.80;43.40
15111;DHT22;7656;51.954;7.998;2023-03-01T09:36:51;20.70;46.30
15111;DHT22;7656;51.954;7.998;2023-03-01T09:41:37;18.40;49.20
15111;DHT22;7656;51.954;7.998;2023-03-01T09:46:10;17.70;51.40
15111;DHT22;7656;51.954;7.998;2023-03-01T09:50:39;20.20;47.90
15111;DHT22;7656;51.954;7.998;2023-03-01T09:55:12;17.00;51.60
15111;DHT22;7656;51.954;7.998;2023-03-01T10:04:54;19.00;48.90
15111;DHT22;7656;51.954;7.998;2023-03-01T10:09:19;15.80;52.10
15111;DHT22;7656;51.954;7.998;2023-03-01T10:18:14;10.30;59.10
15111;DHT22;7656;51.954;7.998;2023-03-01T10:22:38;10.80;59.70
15111;DHT22;7656;51.954;7.998;2023-03-01T10:31:58;9.20;64.90
15111;DHT22;7656;51.954;7.998;2023-03-01T10:36:19;12.10;60.60
15111;DHT22;7656;51.954;7.998;2023-03-01T10:40:58;13.30;59.30
15111;DHT22;7656;51.954;7.998;2023-03-01T10:45:38;11.30;61.00
15111;DHT22;7656;51.954;7.998;2023-03-01T10:50:05;12.90;57.90
15111;DHT22;7656;51.954;7.998;2023-03-01T10:54:32;14.10;55.80
15111;DHT22;7656;51.954;7.998;2023-03-01T10:59:04;14.40;56.10
15111;DHT22;7656;51.954;7.998;2023-03-01T11:03:30;14.60;54.80
15111;DHT22;7656;51.954;7.998;2023-03-01T11:07:54;16.60;52.60
15111;DHT22;7656;51.954;7.998;2023-03-01T11:12:17;17.40;52.40
15111;DHT22;7656;51.954;7.998;2023-03-01T11:16:41;17.50;50.60
15111;DHT22;7656;51.954;7.998;2023-03-01T11:21:03;16.90;51.70
15111;DHT22;7656;51.954;7.998;2023-03-01T11:25:35;16.10;52.80
15111;DHT22;7656;51.954;7.998;2023-03-01T11:30:13;14.60;53.00
15111;DHT22;7656;51.954;7.998;2023-03-01T11:34:53;12.20;56.00
15111;DHT22;7656;51.954;7.998;2023-03-01T11:39:37;10.40;63.30
15111;DHT22;7656;51.954;7.998;2023-03-01T11:44:19;12.10;60.80
15111;DHT22;7656;51.954;7.998;2023-03-01T11:53:55;15.50;53.40
15111;DHT22;7656;51.954;7.998;2023-03-01T12:08:29;12.60;56.80
15111;DHT22;7656;51.954;7.998;2023-03-01T12:22:54;16.90;54.90
15111;DHT22;7656;51.954;7.998;2023-03-01T12:32:36;16.70;54.40
15111;DHT22;7656;51.954;7.998;2023-03-01T12:52:14;20.20;49.20
15111;DHT22;7656;51.954;7.998;2023-03-01T12:56:40;20.60;49.40
15111;DHT22;7656;51.954;7.998;2023-03-01T13:01:32;19.90;49.30
15111;DHT22;7656;51.954;7.998;2023-03-01T13:06:22;18.70;50.70
15111;DHT22;7656;51.954;7.998;2023-03-01T13:10:51;20.10;49.40
15111;DHT22;7656;51.954;7.998;2023-03-01T13:19:57;20.50;48.40
15111;DHT22;7656;51.954;7.998;2023-03-01T13:24:41;19.20;48.80
15111;DHT22;7656;51.954;7.998;2023-03-01T13:29:02;18.80;50.30
15111;DHT22;7656;51.954;7.998;2023-03-01T13:37:47;19.70;48.60
15111;DHT22;7656;51.954;7.998;2023-03-01T13:42:35;19.80;48.20
15111;DHT22;7656;51.954;7.998;2023-03-01T13:47:08;19.80;47.30
15111;DHT22;7656;51.954;7.998;2023-03-01T13:51:38;19.90;47.80
15111;DHT22;7656;51.954;7.998;2023-03-01T13:56:02;19.80;47.70
15111;DHT22;7656;51.954;7.998;2023-03-01T14:00:37;19.70;48.00
15111;DHT22;7656;51.954;7.998;2023-03-01T14:05:00;18.40;49.30
15111;DHT22;7656;51.954;7.998;2023-03-01T14:09:26;18.10;49.90
15111;DHT22;7656;51.954;7.998;2023-03-01T14:13:54;17.50;50.90
15111;DHT22;7656;51.954;7.998;2023-03-01T14:18:34;17.70;52.00
15111;DHT22;7656;51.954;7.998;2023-03-01T14:23:02;18.00;51.20
15111;DHT22;7656;51.954;7.998;2023-03-01T14:27:37;17.70;52.00
15111;DHT22;7656;51.954;7.998;2023-03-01T14:32:20;17.50;52.20
15111;DHT22;7656;51.954;7.998;2023-03-01T14:36:43;17.30;52.20
15111;DHT22;7656;51.954;7.998;2023-03-01T14:41:17;16.40;53.00
15111;DHT22;7656;51.954;7.998;2023-03-01T14:45:39;15.70;53.20
15111;DHT22;7656;51.954;7.998;2023-03-01T14:59:05;14.80;55.00
15111;DHT22;7656;51.954;7.998;2023-03-01T15:03:35;14.90;55.00
15111;DHT22;7656;51.954;7.998;2023-03-01T15:07:59;14.20;55.00
15111;DHT22;7656;51.954;7.998;2023-03-01T15:16:49;14.00;56.40
15111;DHT22;7656;51.954;7.998;2023-03-01T15:21:23;13.50;56.80
15111;DHT22;7656;51.954;7.998;2023-03-01T15:25:45;13.00;57.50
15111;DHT22;7656;51.954;7.998;2023-03-01T15:30:06;12.80;57.40
15111;DHT22;7656;51.954;7.998;2023-03-01T15:34:40;12.40;58.30
15111;DHT22;7656;51.954;7.998;2023-03-01T15:39:02;12.30;58.70
15111;DHT22;7656;51.954;7.998;2023-03-01T15:43:41;11.90;59.20
15111;DHT22;7656;51.954;7.998;2023-03-01T15:48:14;11.60;60.30
15111;DHT22;7656;51.954;7.998;2023-03-01T15:52:40;10.90;61.10
15111;DHT22;7656;51.954;7.998;2023-03-01T15:57:03;10.70;61.80
15111;DHT22;7656;51.954;7.998;2023-03-01T16:01:24;10.70;62.00
15111;DHT22;7656;51.954;7.998;2023-03-01T16:05:45;10.60;63.40
15111;DHT22;7656;51.954;7.998;2023-03-01T16:10:06;10.60;62.70
15111;DHT22;7656;51.954;7.998;2023-03-01T16:14:28;10.40;63.10
15111;DHT22;7656;51.954;7.998;2023-03-01T16:18:49;10.40;63.60
15111;DHT22;7656;51.954;7.998;2023-03-01T16:23:11;10.00;65.20
15111;DHT22;7656;51.954;7.998;2023-03-01T16:27:32;9.90;65.60
15111;DHT22;7656;51.954;7.998;2023-03-01T16:31:53;9.50;66.20
15111;DHT22;7656;51.954;7.998;2023-03-01T16:36:14;9.00;66.80
15111;DHT22;7656;51.954;7.998;2023-03-01T16:40:36;8.70;68.20
15111;DHT22;7656;51.954;7.998;2023-03-01T16:44:58;8.70;68.60
15111;DHT22;7656;51.954;7.998;2023-03-01T16:49:19;8.90;68.50
15111;DHT22;7656;51.954;7.998;2023-03-01T16:53:40;8.70;68.30
15111;DHT22;7656;51.954;7.998;2023-03-01T16:58:01;8.40;69.10
15111;DHT22;7656;51.954;7.998;2023-03-01T17:02:23;8.20;70.30
15111;DHT22;7656;51.954;7.998;2023-03-01T17:06:44;8.00;71.20
15111;DHT22;7656;51.954;7.998;2023-03-01T17:11:13;7.70;72.30
15111;DHT22;7656;51.954;7.998;2023-03-01T17:15:40;7.60;73.50
15111;DHT22;7656;51.954;7.998;2023-03-01T17:20:02;7.40;73.60
15111;DHT22;7656;51.954;7.998;2023-03-01T17:24:24;7.30;75.00
15111;DHT22;7656;51.954;7.998;2023-03-01T17:28:45;7.10;75.60
15111;DHT22;7656;51.954;7.998;2023-03-01T17:33:11;6.90;76.40
15111;DHT22;7656;51.954;7.998;2023-03-01T17:37:32;6.80;77.40
15111;DHT22;7656;51.954;7.998;2023-03-01T17:41:54;6.50;78.30
15111;DHT22;7656;51.954;7.998;2023-03-01T17:46:15;6.20;80.20
15111;DHT22;7656;51.954;7.998;2023-03-01T17:50:37;6.20;80.40
15111;DHT22;7656;51.954;7.998;2023-03-01T17:55:00;6.20;80.80
15111;DHT22;7656;51.954;7.998;2023-03-01T17:59:21;6.10;82.10
15111;DHT22;7656;51.954;7.998;2023-03-01T18:03:43;6.00;83.00
15111;DHT22;7656;51.954;7.998;2023-03-01T18:08:04;6.00;83.30
15111;DHT22;7656;51.954;7.998;2023-03-01T18:12:26;5.80;84.60
15111;DHT22;7656;51.954;7.998;2023-03-01T18:16:47;5.70;85.10
15111;DHT22;7656;51.954;7.998;2023-03-01T18:21:09;5.70;85.80
15111;DHT22;7656;51.954;7.998;2023-03-01T18:25:30;5.60;86.20
15111;DHT22;7656;51.954;7.998;2023-03-01T18:29:51;5.50;86.80
15111;DHT22;7656;51.954;7.998;2023-03-01T18:34:13;5.30;87.80
15111;DHT22;7656;51.954;7.998;2023-03-01T18:38:34;5.30;88.60
15111;DHT22;7656;51.954;7.998;2023-03-01T18:42:55;5.10;90.00
15111;DHT22;7656;51.954;7.998;2023-03-01T18:47:16;5.00;90.20
15111;DHT22;7656;51.954;7.998;2023-03-01T18:51:37;4.90;90.60
15111;DHT22;7656;51.954;7.998;2023-03-01T18:56:00;4.80;91.20
15111;DHT22;7656;51.954;7.998;2023-03-01T19:00:22;4.70;91.50
15111;DHT22;7656;51.954;7.998;2023-03-01T19:04:43;4.80;91.90
15111;DHT22;7656;51.954;7.998;2023-03-01T19:09:06;4.80;92.40
15111;DHT22;7656;51.954;7.998;2023-03-01T19:13:28;4.60;92.60
15111;DHT22;7656;51.954;7.998;2023-03-01T19:17:50;4.60;93.10
15111;DHT22;7656;51.954;7.998;2023-03-01T19:22:11;4.50;93.70
15111;DHT22;7656;51.954;7.998;2023-03-01T19:26:32;4.50;94.10
15111;DHT22;7656;51.954;7.998;2023-03-01T19:31:02;4.50;94.30
15111;DHT22;7656;51.954;7.998;2023-03-01T19:35:33;4.40;95.10
15111;DHT22;7656;51.954;7.998;2023-03-01T19:39:54;4.30;95.40
15111;DHT22;7656;51.954;7.998;2023-03-01T19:44:15;4.10;96.10
15111;DHT22;7656;51.954;7.998;2023-03-01T19:48:36;4.10;97.10
15111;DHT22;7656;51.954;7.998;2023-03-01T19:52:59;4.00;97.70
15111;DHT22;7656;51.954;7.998;2023-03-01T19:57:20;4.00;98.20
15111;DHT22;7656;51.954;7.998;2023-03-01T20:01:42;3.90;98.80
15111;DHT22;7656;51.954;7.998;2023-03-01T20:06:15;3.90;99.20
15111;DHT22;7656;51.954;7.998;2023-03-01T20:10:39;3.80;99.80
15111;DHT22;7656;51.954;7.998;2023-03-01T20:15:01;3.80;99.90
15111;DHT22;7656;51.954;7.998;2023-03-01T20:19:22;3.80;99.90
15111;DHT22;7656;51.954;7.998;2023-03-01T20:23:43;3.80;99.90
15111;DHT22;7656;51.954;7.998;2023-03-01T20:28:05;3.70;99.90
15111;DHT22;7656;51.954;7.998;2023-03-01T20:32:26;3.60;99.90
15111;DHT22;7656;51.954;7.998;2023-03-01T20:36:47;3.60;99.90
15111;DHT22;7656;51.954;7.998;2023-03-01T20:41:11;3.60;99.90
15111;DHT22;7656;51.954;7.998;2023-03-01T20:45:33;3.60;99.90
15111;DHT22;7656;51.954;7.998;2023-03-01T20:49:54;3.70;99.90
15111;DHT22;7656;51.954;7.998;2023-03-01T20:54:15;3.60;99.90
15111;DHT22;7656;51.954;7.998;2023-03-01T20:58:36;3.60;99.90
15111;DHT22;7656;51.954;7.998;2023-03-01T21:02:57;3.50;99.90
15111;DHT22;7656;51.954;7.998;2023-03-01T21:07:18;3.40;99.90
15111;DHT22;7656;51.954;7.998;2023-03-01T21:11:40;3.40;99.90
15111;DHT22;7656;51.954;7.998;2023-03-01T21:16:04;3.40;99.90
15111;DHT22;7656;51.954;7.998;2023-03-01T21:20:27;3.30;99.90
15111;DHT22;7656;51.954;7.998;2023-03-01T21:24:50;3.30;99.90
15111;DHT22;7656;51.954;7.998;2023-03-01T21:29:11;3.20;99.90
15111;DHT22;7656;51.954;7.998;2023-03-01T21:33:33;3.10;99.90
15111;DHT22;7656;51.954;7.998;2023-03-01T21:37:55;3.10;99.90
15111;DHT22;7656;51.954;7.998;2023-03-01T21:42:16;3.00;99.90
15111;DHT22;7656;51.954;7.998;2023-03-01T21:46:38;3.10;99.90
15111;DHT22;7656;51.954;7.998;2023-03-01T21:51:02;3.00;99.90
15111;DHT22;7656;51.954;7.998;2023-03-01T21:55:23;2.90;99.90
15111;DHT22;7656;51.954;7.998;2023-03-01T21:59:44;2.90;99.90
15111;DHT22;7656;51.954;7.998;2023-03-01T22:04:05;2.90;99.90
15111;DHT22;7656;51.954;7.998;2023-03-01T22:08:27;2.80;99.90
15111;DHT22;7656;51.954;7.998;2023-03-01T22:12:48;2.80;99.90
15111;DHT22;7656;51.954;7.998;2023-03-01T22:17:09;2.70;99.90
15111;DHT22;7656;51.954;7.998;2023-03-01T22:21:30;2.70;99.90
15111;DHT22;7656;51.954;7.998;2023-03-01T22:25:52;2.60;99.90
15111;DHT22;7656;51.954;7.998;2023-03-01T22:30:13;2.50;99.90
15111;DHT22;7656;51.954;7.998;2023-03-01T22:34:34;2.50;99.90
15111;DHT22;7656;51.954;7.998;2023-03-01T22:38:56;2.40;99.90
15111;DHT22;7656;51.954;7.998;2023-03-01T22:43:21;2.40;99.90
15111;DHT22;7656;51.954;7.998;2023-03-01T22:47:42;2.40;99.90
15111;DHT22;7656;51.954;7.998;2023-03-01T22:52:03;2.30;99.90
15111;DHT22;7656;51.954;7.998;2023-03-01T22:56:27;2.30;99.90
15111;DHT22;7656;51.954;7.998;2023-03-01T23:00:50;2.20;99.90
15111;DHT22;7656;51.954;7.998;2023-03-01T23:05:11;2.20;99.90
15111;DHT22;7656;51.954;7.998;2023-03-01T23:09:33;2.20;99.90
15111;DHT22;7656;51.954;7.998;2023-03-01T23:13:57;2.20;99.90
15111;DHT22;7656;51.954;7.998;2023-03-01T23:18:18;2.20;99.90
15111;DHT22;7656;51.954;7.998;2023-03-01T23:22:40;2.00;99.90
15111;DHT22;7656;51.954;7.998;2023-03-01T23:27:02;1.90;99.90
15111;DHT22;7656;51.954;7.998;2023-03-01T23:31:23;1.90;99.90
15111;DHT22;7656;51.954;7.998;2023-03-01T23:35:50;1.80;99.90
15111;DHT22;7656;51.954;7.998;2023-03-01T23:40:11;1.70;99.90
15111;DHT22;7656;51.954;7.998;2023-03-01T23:44:33;1.70;99.90
15111;DHT22;7656;51.954;7.998;2023-03-01T23:48:55;1.70;99.90
15111;DHT22;7656;51.954;7.998;2023-03-01T23:53:19;1.70;99.90
15111;DHT22;7656;51.954;7.998;2023-03-01T23:57:40;1.70;99.90
